Time;durP1;ratioP1;P1;durP2;ratioP2;P2;SDS_P1;SDS_P2;PMS_P1;PMS_P2;Temp;Humidity;BMP_temperature;BMP_pressure;BME280_temperature;BME280_humidity;BME280_pressure;Samples;Min_cycle;Max_cycle;Signal;HPM_P1;HPM_P2
2022/01/01 00:02:28;;;;;;;31.53;24.03;;;14.40;99.90;;;;;;10190539;29;20321;-90
2022/01/01 00:07:40;;;;;;;32.37;24.40;;;14.40;99.90;;;;;;10223937;29;20692;-90
2022/01/01 00:12:42;;;;;;;31.00;23.70;;;14.40;99.90;;;;;;10227877;29;20240;-90
2022/01/01 00:17:45;;;;;;;30.50;23.17;;;14.30;99.90;;;;;;10193094;29;20237;-90
2022/01/01 00:22:47;;;;;;;27.47;21.83;;;14.30;99.90;;;;;;10246570;29;20260;-90
2022/01/01 00:27:50;;;;;;;28.57;22.27;;;14.40;99.90;;;;;;10231234;29;20241;-90
2022/01/01 00:32:52;;;;;;;29.90;22.93;;;14.40;99.90;;;;;;10206181;29;20287;-90
2022/01/01 00:37:55;;;;;;;29.17;21.60;;;14.50;99.90;;;;;;10221425;29;20252;-90
2022/01/01 00:42:57;;;;;;;26.43;20.23;;;14.40;99.90;;;;;;10209642;29;20290;-88
2022/01/01 00:48:00;;;;;;;24.17;19.37;;;14.30;99.90;;;;;;10215394;28;20902;-88
2022/01/01 00:53:02;;;;;;;23.37;18.00;;;14.40;99.90;;;;;;10246945;29;20238;-89
2022/01/01 00:58:05;;;;;;;23.77;18.20;;;14.40;99.90;;;;;;10241634;29;20686;-87
2022/01/01 01:03:12;;;;;;;26.70;19.30;;;14.40;99.90;;;;;;10225151;28;20326;-88
2022/01/01 01:08:17;;;;;;;23.67;17.93;;;14.30;99.90;;;;;;10222466;29;20244;-89
2022/01/01 01:13:20;;;;;;;22.00;17.07;;;14.30;99.90;;;;;;10231985;28;20689;-89
2022/01/01 01:18:23;;;;;;;19.93;16.97;;;14.40;99.90;;;;;;10195915;29;20263;-88
2022/01/01 01:23:25;;;;;;;20.37;15.30;;;14.30;99.90;;;;;;10221524;29;20267;-87
2022/01/01 01:28:28;;;;;;;19.30;16.07;;;14.30;99.90;;;;;;10230892;28;20232;-87
2022/01/01 01:33:30;;;;;;;19.03;16.13;;;14.20;99.90;;;;;;10206952;29;20239;-86
2022/01/01 01:38:36;;;;;;;18.97;15.13;;;14.20;99.90;;;;;;10182639;29;20298;-88
2022/01/01 01:43:38;;;;;;;20.20;16.27;;;14.00;99.90;;;;;;10206868;29;20319;-88
2022/01/01 01:48:43;;;;;;;17.37;14.60;;;14.10;99.90;;;;;;10225471;29;20260;-88
2022/01/01 01:53:47;;;;;;;15.70;11.97;;;14.00;99.90;;;;;;10205723;28;20234;-89
2022/01/01 01:58:50;;;;;;;13.83;10.40;;;14.00;99.90;;;;;;10221619;29;20244;-88
2022/01/01 02:03:56;;;;;;;15.60;13.00;;;14.00;99.90;;;;;;10224367;29;20835;-88
2022/01/01 02:08:58;;;;;;;19.23;13.53;;;13.90;99.90;;;;;;10224489;28;20277;-88
2022/01/01 02:14:09;;;;;;;15.43;12.73;;;14.00;99.90;;;;;;10189003;29;20240;-88
2022/01/01 02:19:11;;;;;;;16.33;13.23;;;13.90;99.90;;;;;;10221338;29;20230;-88
2022/01/01 02:24:14;;;;;;;14.27;12.03;;;14.10;99.90;;;;;;10207663;29;20255;-88
2022/01/01 02:29:16;;;;;;;15.07;11.87;;;14.10;99.90;;;;;;10208294;29;20235;-88
2022/01/01 02:34:19;;;;;;;12.23;10.47;;;14.10;99.90;;;;;;10224783;29;20237;-88
2022/01/01 02:39:23;;;;;;;12.70;10.50;;;14.10;99.90;;;;;;10224629;28;20241;-89
2022/01/01 02:44:26;;;;;;;11.73;9.40;;;14.00;99.90;;;;;;10230809;29;20316;-88
2022/01/01 02:49:29;;;;;;;11.33;10.03;;;14.00;99.90;;;;;;10241773;29;20262;-88
2022/01/01 02:54:32;;;;;;;12.70;10.43;;;13.80;99.90;;;;;;10228778;29;20247;-88
2022/01/01 02:59:34;;;;;;;7.23;6.53;;;13.90;99.90;;;;;;10197049;29;20218;-89
2022/01/01 03:04:37;;;;;;;6.77;5.77;;;13.80;99.90;;;;;;10237817;28;20239;-88
2022/01/01 03:09:39;;;;;;;9.33;7.07;;;13.80;99.90;;;;;;10253288;29;20239;-88
2022/01/01 03:14:42;;;;;;;14.40;10.13;;;13.90;99.90;;;;;;10251144;29;20246;-89
2022/01/01 03:19:44;;;;;;;5.23;4.77;;;13.70;99.90;;;;;;10234933;29;20235;-88
2022/01/01 03:24:47;;;;;;;7.70;6.37;;;13.70;99.90;;;;;;10250902;29;20269;-89
2022/01/01 03:29:49;;;;;;;10.50;8.90;;;13.80;99.90;;;;;;10250295;28;20235;-88
2022/01/01 03:34:52;;;;;;;11.33;9.50;;;14.00;99.90;;;;;;10209406;29;20266;-89
2022/01/01 03:39:54;;;;;;;10.27;8.63;;;14.10;99.90;;;;;;10194805;29;20882;-88
2022/01/01 03:44:57;;;;;;;7.60;6.57;;;14.20;99.90;;;;;;10233137;29;20302;-90
2022/01/01 03:50:00;;;;;;;8.73;7.70;;;14.00;99.90;;;;;;10249866;28;20263;-89
2022/01/01 03:55:04;;;;;;;8.20;7.13;;;14.10;99.90;;;;;;10211486;29;20221;-89
2022/01/01 04:00:12;;;;;;;8.57;7.67;;;14.20;99.90;;;;;;10194624;29;20264;-89
2022/01/01 04:05:17;;;;;;;9.10;7.03;;;14.10;99.90;;;;;;10211061;29;20739;-89
2022/01/01 04:10:19;;;;;;;8.80;7.37;;;14.10;99.90;;;;;;10220027;29;20294;-89
2022/01/01 04:15:22;;;;;;;8.37;7.13;;;13.90;99.90;;;;;;10245530;28;20617;-88
2022/01/01 04:20:25;;;;;;;8.60;7.40;;;14.00;99.90;;;;;;10194208;29;20297;-89
2022/01/01 04:25:28;;;;;;;7.00;6.10;;;13.90;99.90;;;;;;10193072;29;20274;-88
2022/01/01 04:30:31;;;;;;;7.70;6.90;;;13.80;99.90;;;;;;10216871;29;20601;-89
2022/01/01 04:35:33;;;;;;;8.03;6.43;;;13.70;99.90;;;;;;10215914;29;20241;-88
2022/01/01 04:40:36;;;;;;;7.10;6.10;;;13.90;99.90;;;;;;10233424;28;20333;-89
2022/01/01 04:45:38;;;;;;;7.80;6.53;;;14.00;99.90;;;;;;10209660;29;20303;-89
2022/01/01 04:50:41;;;;;;;7.90;6.13;;;14.00;99.90;;;;;;10177016;29;20237;-88
2022/01/01 04:55:47;;;;;;;7.43;6.60;;;14.00;99.90;;;;;;10192757;29;20304;-89
2022/01/01 05:00:50;;;;;;;6.23;5.63;;;14.10;99.90;;;;;;10214290;28;20684;-88
2022/01/01 05:05:52;;;;;;;7.47;6.00;;;14.10;99.90;;;;;;10247471;29;20623;-88
2022/01/01 05:10:54;;;;;;;6.33;5.70;;;14.10;99.90;;;;;;10230326;29;20792;-88
2022/01/01 05:15:57;;;;;;;6.60;5.80;;;14.10;99.90;;;;;;10238902;28;20273;-89
2022/01/01 05:20:59;;;;;;;6.87;5.87;;;14.00;99.90;;;;;;10209340;29;20720;-88
2022/01/01 05:26:02;;;;;;;7.23;5.43;;;14.10;99.90;;;;;;10209006;29;20216;-89
2022/01/01 05:31:05;;;;;;;6.73;4.70;;;14.10;99.90;;;;;;10209100;29;20277;-89
2022/01/01 05:36:07;;;;;;;10.87;6.03;;;14.00;99.90;;;;;;10192039;29;20249;-90
2022/01/01 05:41:10;;;;;;;5.87;5.13;;;14.10;99.90;;;;;;10221793;29;20660;-89
2022/01/01 05:46:12;;;;;;;6.37;5.57;;;14.00;99.90;;;;;;10208738;29;20205;-89
2022/01/01 05:51:15;;;;;;;5.17;4.67;;;13.90;99.90;;;;;;10233657;29;20288;-89
2022/01/01 05:56:17;;;;;;;5.90;4.87;;;14.10;99.90;;;;;;10214751;29;20734;-89
2022/01/01 06:01:20;;;;;;;5.97;4.73;;;14.20;99.90;;;;;;10216415;29;21044;-89
2022/01/01 06:06:23;;;;;;;6.10;5.03;;;14.20;99.90;;;;;;10247547;29;20649;-90
2022/01/01 06:11:33;;;;;;;5.00;4.50;;;14.20;99.90;;;;;;10246901;29;20308;-88
2022/01/01 06:16:36;;;;;;;5.20;4.07;;;14.20;99.90;;;;;;10208439;29;20236;-90
2022/01/01 06:21:38;;;;;;;5.10;4.60;;;14.20;99.90;;;;;;10239675;29;20309;-89
2022/01/01 06:26:41;;;;;;;5.27;4.77;;;14.10;99.90;;;;;;10254648;28;20238;-89
2022/01/01 06:31:43;;;;;;;3.97;3.63;;;14.20;99.90;;;;;;10217568;29;20242;-89
2022/01/01 06:36:46;;;;;;;4.40;3.97;;;14.30;99.90;;;;;;10250820;29;20276;-90
2022/01/01 06:41:48;;;;;;;5.47;4.10;;;14.20;99.90;;;;;;10254055;28;20717;-89
2022/01/01 06:46:51;;;;;;;4.27;3.50;;;14.30;99.90;;;;;;10235842;29;20698;-89
2022/01/01 06:51:54;;;;;;;4.43;4.03;;;14.20;99.90;;;;;;10236371;29;20683;-89
2022/01/01 06:56:56;;;;;;;6.03;4.23;;;14.30;99.90;;;;;;10235446;29;20269;-89
2022/01/01 07:01:58;;;;;;;4.40;4.00;;;14.30;99.90;;;;;;10251898;28;20319;-89
2022/01/01 07:07:01;;;;;;;4.10;3.53;;;14.30;99.90;;;;;;10250660;29;20698;-88
2022/01/01 07:12:04;;;;;;;5.17;3.93;;;14.20;99.90;;;;;;10224813;29;20250;-89
2022/01/01 07:17:06;;;;;;;3.93;3.50;;;14.10;99.90;;;;;;10251941;28;20261;-89
2022/01/01 07:22:09;;;;;;;3.60;3.30;;;14.00;99.90;;;;;;10253065;29;20258;-89
2022/01/01 07:27:12;;;;;;;3.67;3.27;;;14.00;99.90;;;;;;10251547;28;20242;-87
2022/01/01 07:32:16;;;;;;;4.80;4.03;;;14.10;99.90;;;;;;10241391;28;20253;-89
2022/01/01 07:37:18;;;;;;;3.77;3.43;;;14.10;99.90;;;;;;10214869;29;20296;-88
2022/01/01 07:42:21;;;;;;;3.87;3.47;;;14.20;99.90;;;;;;10199119;29;20705;-88
2022/01/01 07:47:26;;;;;;;3.93;3.40;;;14.10;99.90;;;;;;10231156;29;20248;-88
2022/01/01 07:52:29;;;;;;;4.13;3.37;;;14.10;99.90;;;;;;10213094;29;20268;-88
2022/01/01 07:57:31;;;;;;;3.63;3.33;;;14.20;99.90;;;;;;10229831;29;20246;-89
2022/01/01 08:02:45;;;;;;;4.43;3.20;;;14.30;99.90;;;;;;10229359;29;20646;-89
2022/01/01 08:07:47;;;;;;;3.80;3.30;;;14.10;99.90;;;;;;10234879;29;20287;-89
2022/01/01 08:13:07;;;;;;;3.77;3.37;;;14.20;99.90;;;;;;10227621;29;20645;-89
2022/01/01 08:18:09;;;;;;;3.20;2.83;;;14.30;99.90;;;;;;10229584;28;20286;-89
2022/01/01 08:23:13;;;;;;;4.57;3.73;;;14.20;99.90;;;;;;10212192;29;20257;-90
2022/01/01 08:28:15;;;;;;;3.27;2.97;;;14.00;99.90;;;;;;10230626;29;20579;-89
2022/01/01 08:33:18;;;;;;;3.20;2.80;;;14.00;99.90;;;;;;10203455;29;20237;-89
2022/01/01 08:38:20;;;;;;;3.83;3.10;;;14.10;99.90;;;;;;10231643;28;20249;-90
2022/01/01 08:43:25;;;;;;;3.07;2.40;;;14.10;99.90;;;;;;10236873;28;20271;-90
2022/01/01 08:48:27;;;;;;;3.63;2.57;;;14.10;99.90;;;;;;10227868;29;20259;-90
2022/01/01 08:53:30;;;;;;;3.87;2.83;;;14.00;99.90;;;;;;10215865;29;20250;-89
2022/01/01 08:58:33;;;;;;;3.33;3.03;;;14.20;99.90;;;;;;10209463;29;20679;-89
2022/01/01 09:03:36;;;;;;;3.17;2.60;;;14.00;99.90;;;;;;10209122;29;20681;-89
2022/01/01 09:08:41;;;;;;;4.83;3.17;;;14.20;99.90;;;;;;10228323;29;20239;-89
2022/01/01 09:13:45;;;;;;;2.70;2.37;;;14.20;99.90;;;;;;10228009;29;20674;-89
2022/01/01 09:18:47;;;;;;;2.67;2.23;;;14.20;99.90;;;;;;10209330;29;20267;-89
2022/01/01 09:23:50;;;;;;;2.60;2.37;;;14.20;99.90;;;;;;10248124;29;20294;-89
2022/01/01 09:28:52;;;;;;;4.10;2.80;;;14.20;99.90;;;;;;10228431;29;20236;-89
2022/01/01 09:33:55;;;;;;;4.73;2.47;;;14.30;99.90;;;;;;10223512;29;20809;-89
2022/01/01 09:38:58;;;;;;;2.87;2.50;;;14.30;99.90;;;;;;10209836;29;20624;-88
2022/01/01 09:44:00;;;;;;;3.13;2.83;;;14.30;99.90;;;;;;10234620;28;20618;-88
2022/01/01 09:49:02;;;;;;;2.57;2.37;;;14.20;99.90;;;;;;10213788;28;20296;-88
2022/01/01 09:54:05;;;;;;;3.40;2.87;;;14.10;99.90;;;;;;10219072;29;20242;-88
2022/01/01 09:59:07;;;;;;;2.63;2.40;;;14.30;99.90;;;;;;10237309;29;20235;-88
2022/01/01 10:04:14;;;;;;;3.37;2.80;;;14.10;99.90;;;;;;10239498;28;20311;-89
2022/01/01 10:09:30;;;;;;;2.67;2.40;;;14.10;99.90;;;;;;10254478;29;20236;-88
2022/01/01 10:14:38;;;;;;;3.83;2.43;;;14.00;99.90;;;;;;10224205;29;20235;-88
2022/01/01 10:19:42;;;;;;;3.40;2.60;;;14.00;99.90;;;;;;10235109;28;20647;-88
2022/01/01 10:30:07;;;;;;;3.10;2.63;;;13.70;99.90;;;;;;10237350;28;20658;-87
2022/01/01 10:35:15;;;;;;;2.27;2.07;;;14.00;99.90;;;;;;10239318;28;20238;-88
2022/01/01 10:40:28;;;;;;;3.10;2.53;;;13.90;99.90;;;;;;10221082;29;20246;-88
2022/01/01 10:45:36;;;;;;;2.33;2.13;;;13.90;99.90;;;;;;10224668;28;20280;-87
2022/01/01 10:50:40;;;;;;;2.30;2.10;;;14.10;99.90;;;;;;10236377;28;20309;-89
2022/01/01 10:55:45;;;;;;;1.93;1.70;;;14.10;99.90;;;;;;10222951;29;20705;-87
2022/01/01 11:00:48;;;;;;;2.33;2.10;;;14.40;99.90;;;;;;10217471;29;20626;-87
2022/01/01 11:06:10;;;;;;;2.20;1.90;;;14.20;99.90;;;;;;10217037;29;20702;-89
2022/01/01 11:11:15;;;;;;;2.97;2.30;;;14.00;99.90;;;;;;10233293;29;20240;-91
2022/01/01 11:16:19;;;;;;;4.43;3.60;;;14.20;99.90;;;;;;10205605;29;20296;-89
2022/01/01 11:21:23;;;;;;;2.30;2.10;;;13.90;99.90;;;;;;10237534;28;20207;-89
2022/01/01 11:26:27;;;;;;;2.80;2.33;;;14.20;99.90;;;;;;10209127;29;20704;-90
2022/01/01 11:31:30;;;;;;;6.73;3.13;;;13.30;99.90;;;;;;10220851;29;20263;-90
2022/01/01 11:36:34;;;;;;;4.37;2.87;;;12.90;99.90;;;;;;10200028;29;20253;-91
2022/01/01 11:41:39;;;;;;;2.57;2.33;;;13.30;99.90;;;;;;10197397;29;20756;-90
2022/01/01 11:46:57;;;;;;;5.00;4.40;;;13.30;99.90;;;;;;10222260;29;20235;-90
2022/01/01 11:52:01;;;;;;;8.13;4.47;;;13.30;99.90;;;;;;10219492;29;20236;-90
2022/01/01 11:57:08;;;;;;;10.27;5.83;;;13.50;99.90;;;;;;10198934;29;20213;-91
2022/01/01 12:02:20;;;;;;;5.07;3.23;;;13.20;99.90;;;;;;10219029;29;20263;-90
2022/01/01 12:07:24;;;;;;;4.00;3.10;;;12.70;99.90;;;;;;10258545;29;20207;-89
2022/01/01 12:12:53;;;;;;;3.70;2.30;;;12.00;99.90;;;;;;10276794;28;20226;-90
2022/01/01 12:18:03;;;;;;;4.00;2.63;;;12.00;99.90;;;;;;10299225;28;20221;-89
2022/01/01 12:23:15;;;;;;;3.33;2.40;;;12.60;99.90;;;;;;10292560;28;20281;-90
2022/01/01 12:28:22;;;;;;;2.63;2.33;;;13.30;99.90;;;;;;10282908;29;20214;-89
2022/01/01 12:33:36;;;;;;;4.03;2.83;;;13.40;99.90;;;;;;10302253;28;20203;-90
2022/01/01 12:38:39;;;;;;;4.20;3.63;;;13.50;99.90;;;;;;10266134;29;20192;-89
2022/01/01 12:43:51;;;;;;;3.93;3.30;;;13.50;99.90;;;;;;10256480;28;20221;-89
2022/01/01 12:48:57;;;;;;;5.47;3.03;;;13.40;99.90;;;;;;10296722;28;20262;-90
2022/01/01 12:54:03;;;;;;;4.13;2.73;;;13.40;99.90;;;;;;10285683;28;20228;-89
2022/01/01 12:59:12;;;;;;;4.20;2.20;;;13.50;99.90;;;;;;10269078;28;20191;-90
2022/01/01 13:04:17;;;;;;;3.63;2.93;;;13.80;99.90;;;;;;10204192;29;20779;-90
2022/01/01 13:09:24;;;;;;;2.60;2.40;;;13.70;99.90;;;;;;10218635;29;20253;-90
2022/01/01 13:14:29;;;;;;;2.67;2.10;;;13.70;99.90;;;;;;10199106;29;20320;-90
2022/01/01 13:19:33;;;;;;;3.37;2.80;;;13.80;99.90;;;;;;10215237;29;20268;-90
2022/01/01 13:24:37;;;;;;;4.57;2.83;;;13.80;99.90;;;;;;10217312;29;20287;-89
2022/01/01 13:29:42;;;;;;;5.97;3.10;;;13.80;99.90;;;;;;10232546;29;20269;-89
2022/01/01 13:34:53;;;;;;;4.00;2.63;;;13.20;99.90;;;;;;10260834;28;20258;-90
2022/01/01 13:39:56;;;;;;;3.07;2.33;;;13.50;99.90;;;;;;10211975;28;20223;-90
2022/01/01 13:45:04;;;;;;;2.60;1.87;;;13.00;99.90;;;;;;10243460;28;20226;-89
2022/01/01 13:50:24;;;;;;;5.10;2.57;;;11.30;99.90;;;;;;10229754;28;20226;-89
2022/01/01 13:55:27;;;;;;;4.97;2.67;;;12.90;99.90;;;;;;10249321;29;20234;-90
2022/01/01 14:00:32;;;;;;;3.60;3.23;;;12.80;99.90;;;;;;10266465;28;20300;-90
2022/01/01 14:05:35;;;;;;;5.80;2.77;;;12.60;99.90;;;;;;10287567;28;20322;-89
2022/01/01 14:10:38;;;;;;;3.83;2.87;;;12.70;99.90;;;;;;10269593;28;20699;-89
2022/01/01 14:15:41;;;;;;;3.63;2.57;;;12.90;99.90;;;;;;10269574;28;20212;-89
2022/01/01 14:20:52;;;;;;;6.03;4.13;;;13.00;99.90;;;;;;10268806;28;20646;-90
2022/01/01 14:25:55;;;;;;;5.63;3.37;;;12.00;99.90;;;;;;10286802;28;20316;-89
2022/01/01 14:31:00;;;;;;;11.17;4.70;;;12.10;99.90;;;;;;10268619;28;20296;-89
2022/01/01 14:36:08;;;;;;;5.80;3.80;;;12.50;99.90;;;;;;10256176;28;20214;-89
2022/01/01 14:41:12;;;;;;;14.10;7.57;;;12.50;99.90;;;;;;10279607;28;20246;-92
2022/01/01 14:46:22;;;;;;;11.87;5.23;;;12.20;99.90;;;;;;10236317;29;20256;-94
2022/01/01 14:51:44;;;;;;;13.20;5.87;;;13.10;99.90;;;;;;10241739;29;20251;-95
2022/01/01 14:57:17;;;;;;;13.53;4.53;;;12.90;99.90;;;;;;10250651;28;20406;-93
2022/01/01 15:02:19;;;;;;;6.37;3.70;;;13.10;99.90;;;;;;10226668;29;20249;-94
2022/01/01 15:07:23;;;;;;;7.93;4.50;;;13.80;99.90;;;;;;10211190;28;20304;-95
2022/01/01 15:12:27;;;;;;;5.43;3.97;;;14.40;99.90;;;;;;10216039;29;20216;-94
2022/01/01 15:17:31;;;;;;;8.13;4.53;;;14.10;99.90;;;;;;10205007;29;20620;-93
2022/01/01 15:22:58;;;;;;;5.80;3.87;;;14.50;99.90;;;;;;10218349;29;20239;-92
2022/01/01 15:28:01;;;;;;;5.17;3.83;;;14.90;99.90;;;;;;10203381;29;20263;-94
2022/01/01 15:33:14;;;;;;;8.17;5.40;;;14.90;99.90;;;;;;10218463;29;20251;-93
2022/01/01 15:38:53;;;;;;;5.73;4.37;;;13.40;99.90;;;;;;10200887;29;20342;-93
2022/01/01 15:43:55;;;;;;;5.70;4.10;;;14.80;99.90;;;;;;10197066;29;20278;-94
2022/01/01 15:48:58;;;;;;;8.70;4.20;;;14.90;99.90;;;;;;10229156;28;20268;-92
2022/01/01 15:54:00;;;;;;;7.03;4.07;;;15.00;99.90;;;;;;10208821;29;20324;-91
2022/01/01 15:59:04;;;;;;;7.27;4.43;;;14.70;99.90;;;;;;10214886;29;20710;-93
2022/01/01 16:04:54;;;;;;;7.33;5.00;;;14.50;99.90;;;;;;10220154;29;20255;-92
2022/01/01 16:10:04;;;;;;;6.37;4.00;;;14.60;99.90;;;;;;10216029;29;20544;-93
2022/01/01 16:15:08;;;;;;;6.33;4.10;;;14.70;99.90;;;;;;10230260;28;20214;-94
2022/01/01 16:20:11;;;;;;;6.40;4.43;;;14.70;99.90;;;;;;10197232;29;20258;-92
2022/01/01 16:25:17;;;;;;;4.37;3.73;;;14.50;99.90;;;;;;10227851;28;20634;-93
2022/01/01 16:30:21;;;;;;;12.00;9.57;;;14.60;99.90;;;;;;10194620;29;20258;-92
2022/01/01 16:35:24;;;;;;;11.03;8.10;;;14.50;99.90;;;;;;10195424;29;20274;-91
2022/01/01 16:40:28;;;;;;;7.63;5.70;;;14.30;99.90;;;;;;10212862;29;20258;-94
2022/01/01 16:45:39;;;;;;;5.97;4.23;;;14.00;99.90;;;;;;10210201;29;20732;-93
2022/01/01 16:50:44;;;;;;;5.97;3.74;;;14.30;99.90;;;;;;9551856;28;10021503;-92
2022/01/01 16:55:47;;;;;;;5.20;3.83;;;14.50;99.90;;;;;;10223561;28;20240;-90
2022/01/01 17:00:57;;;;;;;5.87;4.10;;;14.70;99.90;;;;;;10212252;29;20217;-93
2022/01/01 17:06:03;;;;;;;5.30;3.67;;;14.60;99.90;;;;;;10241265;29;20229;-94
2022/01/01 17:11:06;;;;;;;5.60;3.93;;;14.60;99.90;;;;;;10246603;28;20242;-92
2022/01/01 17:16:39;;;;;;;6.60;4.40;;;14.50;99.90;;;;;;10251986;28;20212;-92
2022/01/01 17:22:00;;;;;;;5.07;4.10;;;14.60;99.90;;;;;;10256366;28;20221;-92
2022/01/01 17:27:14;;;;;;;5.37;4.23;;;14.60;99.90;;;;;;10264885;28;20233;-94
2022/01/01 17:32:18;;;;;;;6.03;4.57;;;14.60;99.90;;;;;;10258214;29;20196;-93
2022/01/01 17:37:30;;;;;;;6.97;4.40;;;14.60;99.90;;;;;;10243656;29;20210;-91
2022/01/01 17:42:34;;;;;;;6.83;4.20;;;14.60;99.90;;;;;;10238388;29;20226;-92
2022/01/01 17:47:40;;;;;;;5.20;4.10;;;14.60;99.90;;;;;;10222077;29;20238;-93
2022/01/01 17:52:48;;;;;;;4.77;3.90;;;14.60;99.90;;;;;;10232708;29;20198;-94
2022/01/01 17:58:01;;;;;;;7.20;5.63;;;14.50;99.90;;;;;;10237453;29;20211;-93
2022/01/01 18:03:05;;;;;;;6.00;4.30;;;14.40;99.90;;;;;;10227838;29;20214;-92
2022/01/01 18:08:18;;;;;;;5.70;4.43;;;14.30;99.90;;;;;;10220005;28;20246;-93
2022/01/01 18:13:27;;;;;;;4.73;3.93;;;14.30;99.90;;;;;;10262956;28;20575;-94
2022/01/01 18:18:31;;;;;;;4.43;4.03;;;14.30;99.90;;;;;;10226940;29;20255;-92
2022/01/01 18:23:35;;;;;;;6.90;4.33;;;14.30;99.90;;;;;;10218702;29;20310;-92
2022/01/01 18:28:39;;;;;;;20.37;13.90;;;14.30;99.90;;;;;;10233629;29;20214;-92
2022/01/01 18:33:44;;;;;;;29.63;15.70;;;13.50;99.90;;;;;;10263106;29;20253;-93
2022/01/01 18:38:51;;;;;;;5.70;4.63;;;12.70;99.90;;;;;;10267376;29;20248;-91
2022/01/01 18:43:54;;;;;;;20.80;12.60;;;12.80;99.90;;;;;;10256133;28;21034;-94
2022/01/01 18:48:56;;;;;;;6.53;5.23;;;12.80;99.90;;;;;;10237246;29;20317;-92
2022/01/01 18:54:06;;;;;;;18.83;12.43;;;12.90;99.90;;;;;;10258459;28;20207;-93
2022/01/01 18:59:11;;;;;;;17.83;12.53;;;12.40;99.90;;;;;;10235630;29;20239;-92
2022/01/01 19:04:17;;;;;;;18.27;11.27;;;12.00;99.90;;;;;;10266817;28;20218;-93
2022/01/01 19:09:39;;;;;;;23.53;14.03;;;11.90;99.90;;;;;;10240908;28;20274;-93
2022/01/01 19:14:45;;;;;;;16.47;9.97;;;12.10;99.90;;;;;;10228897;29;20203;-91
2022/01/01 19:19:48;;;;;;;18.77;12.63;;;11.70;99.90;;;;;;10214965;28;20624;-92
2022/01/01 19:24:51;;;;;;;21.20;12.60;;;11.50;99.90;;;;;;10238977;29;20236;-94
2022/01/01 19:29:56;;;;;;;31.13;13.80;;;11.30;99.90;;;;;;10243273;29;20419;-92
2022/01/01 19:35:02;;;;;;;22.80;13.13;;;10.90;99.90;;;;;;10244997;29;20208;-91
2022/01/01 19:40:05;;;;;;;48.83;20.43;;;11.20;99.90;;;;;;10239809;29;20346;-92
2022/01/01 19:45:09;;;;;;;33.70;18.60;;;10.60;99.90;;;;;;10240232;28;20227;-92
2022/01/01 19:50:13;;;;;;;45.07;18.67;;;10.50;99.90;;;;;;10253407;29;20227;-92
2022/01/01 19:55:16;;;;;;;43.13;15.07;;;10.40;99.90;;;;;;10234639;28;20234;-92
2022/01/01 20:00:19;;;;;;;41.13;15.60;;;10.40;99.90;;;;;;10228731;29;20207;-93
2022/01/01 20:05:25;;;;;;;26.30;15.53;;;10.30;99.90;;;;;;10245719;29;20259;-93
2022/01/01 20:10:27;;;;;;;24.50;14.80;;;10.40;99.90;;;;;;10233536;29;20215;-92
2022/01/01 20:15:31;;;;;;;27.97;13.80;;;10.20;99.90;;;;;;10220592;29;20251;-90
2022/01/01 20:20:34;;;;;;;24.10;14.00;;;10.10;99.90;;;;;;10189979;29;20211;-91
2022/01/01 20:25:37;;;;;;;32.77;18.80;;;10.10;99.90;;;;;;10191447;29;20259;-91
2022/01/01 20:30:40;;;;;;;38.17;22.00;;;10.10;99.90;;;;;;10241977;28;20214;-91
2022/01/01 20:35:56;;;;;;;63.67;28.23;;;10.10;99.90;;;;;;10185762;29;20283;-90
2022/01/01 20:40:59;;;;;;;60.67;32.57;;;10.20;99.90;;;;;;10175235;29;20250;-91
2022/01/01 20:46:16;;;;;;;59.43;30.73;;;10.20;99.90;;;;;;10120766;29;20232;-92
2022/01/01 20:51:19;;;;;;;48.83;30.53;;;10.30;99.90;;;;;;10167717;29;20275;-92
2022/01/01 20:56:22;;;;;;;66.87;32.67;;;10.20;99.90;;;;;;10151044;29;20765;-92
2022/01/01 21:01:25;;;;;;;63.37;33.00;;;10.10;99.90;;;;;;10148676;29;20645;-91
2022/01/01 21:06:32;;;;;;;44.80;26.03;;;10.30;99.90;;;;;;10181035;29;20776;-91
2022/01/01 21:11:37;;;;;;;18.63;12.17;;;10.60;99.90;;;;;;10208867;29;20244;-91
2022/01/01 21:16:40;;;;;;;94.27;31.03;;;10.90;99.90;;;;;;10228477;29;20247;-91
2022/01/01 21:21:43;;;;;;;59.70;29.03;;;11.40;99.90;;;;;;10249079;29;20238;-91
2022/01/01 21:26:46;;;;;;;107.17;51.50;;;10.70;99.90;;;;;;10231223;28;20262;-92
2022/01/01 21:31:48;;;;;;;91.73;47.10;;;10.40;99.90;;;;;;10225710;29;20214;-92
2022/01/01 21:36:51;;;;;;;88.57;48.77;;;10.40;99.90;;;;;;10244624;29;20271;-92
2022/01/01 21:41:53;;;;;;;92.67;49.10;;;10.40;99.90;;;;;;10248447;29;20249;-93
2022/01/01 21:46:56;;;;;;;19.73;9.17;;;10.30;99.90;;;;;;10219225;29;20258;-93
2022/01/01 21:51:59;;;;;;;49.30;28.27;;;11.50;99.90;;;;;;10175394;29;20232;-93
2022/01/01 21:57:01;;;;;;;35.17;21.17;;;11.50;99.90;;;;;;10203987;29;20263;-91
2022/01/01 22:02:04;;;;;;;48.90;27.40;;;11.30;99.90;;;;;;10221862;29;20218;-91
2022/01/01 22:07:06;;;;;;;56.07;28.87;;;10.80;99.90;;;;;;10251553;28;20249;-91
2022/01/01 22:12:09;;;;;;;60.13;33.57;;;10.60;99.90;;;;;;10212687;29;20246;-91
2022/01/01 22:17:11;;;;;;;65.80;30.43;;;10.50;99.90;;;;;;10216238;29;20224;-91
2022/01/01 22:22:14;;;;;;;49.80;28.37;;;10.20;99.90;;;;;;10236601;28;20242;-92
2022/01/01 22:27:18;;;;;;;67.57;35.83;;;10.20;99.90;;;;;;10239179;29;20246;-90
2022/01/01 22:32:20;;;;;;;42.00;22.47;;;10.00;99.90;;;;;;10244036;29;20243;-91
2022/01/01 22:37:23;;;;;;;56.13;29.10;;;10.30;99.90;;;;;;10250626;29;20239;-91
2022/01/01 22:42:25;;;;;;;68.13;38.50;;;10.30;99.90;;;;;;10281778;29;20238;-91
2022/01/01 22:47:28;;;;;;;94.90;53.33;;;10.00;99.90;;;;;;10244402;29;20708;-91
2022/01/01 22:52:30;;;;;;;61.10;35.07;;;10.00;99.90;;;;;;10243095;29;20215;-91
2022/01/01 22:57:33;;;;;;;104.33;53.43;;;10.30;99.90;;;;;;10268371;29;20218;-90
2022/01/01 23:02:37;;;;;;;79.93;40.90;;;10.10;99.90;;;;;;10243129;29;20237;-92
2022/01/01 23:07:39;;;;;;;81.87;45.03;;;10.10;99.90;;;;;;10238104;29;20634;-91
2022/01/01 23:12:44;;;;;;;56.90;29.50;;;10.00;99.90;;;;;;10233642;29;20211;-91
2022/01/01 23:23:07;;;;;;;83.53;40.10;;;10.30;99.90;;;;;;10245766;29;20306;-91
2022/01/01 23:28:09;;;;;;;48.10;25.97;;;9.90;99.90;;;;;;10261973;29;20227;-91
2022/01/01 23:33:14;;;;;;;42.20;24.33;;;10.30;99.90;;;;;;10236559;29;20302;-93
2022/01/01 23:38:18;;;;;;;49.80;27.23;;;10.60;99.90;;;;;;9917947;29;10000558;-94
2022/01/01 23:43:25;;;;;;;24.33;13.90;;;10.50;99.90;;;;;;10254659;29;20210;-92
2022/01/01 23:48:28;;;;;;;59.30;32.87;;;11.10;99.90;;;;;;10299200;28;20220;-92
2022/01/01 23:53:35;;;;;;;49.80;29.13;;;11.70;99.90;;;;;;10297956;28;20616;-91
2022/01/01 23:59:10;;;;;;;50.93;29.83;;;10.70;99.90;;;;;;10269327;28;20218;-91
